sensor_id;sensor_type;location;lat;lon;timestamp;pressure;altitude;pressure_sealevel;temperature;humidity
57114;BME280;42994;51.606;9.988;2023-02-21T00:02:14;99108.31;;;6.41;100.00
57114;BME280;42994;51.606;9.988;2023-02-21T00:04:58;99108.97;;;6.43;100.00
57114;BME280;42994;51.606;9.988;2023-02-21T00:07:42;99091.16;;;6.43;100.00
57114;BME280;42994;51.606;9.988;2023-02-21T00:10:27;99089.16;;;6.45;100.00
57114;BME280;42994;51.606;9.988;2023-02-21T00:13:12;99077.69;;;6.45;100.00
57114;BME280;42994;51.606;9.988;2023-02-21T00:15:56;99075.03;;;6.45;100.00
57114;BME280;42994;51.606;9.988;2023-02-21T00:18:40;99079.34;;;6.46;100.00
57114;BME280;42994;51.606;9.988;2023-02-21T00:21:27;99061.38;;;6.48;100.00
57114;BME280;42994;51.606;9.988;2023-02-21T00:24:11;99061.38;;;6.48;100.00
57114;BME280;42994;51.606;9.988;2023-02-21T00:26:56;99064.03;;;6.48;100.00
57114;BME280;42994;51.606;9.988;2023-02-21T00:29:41;99055.06;;;6.49;100.00
57114;BME280;42994;51.606;9.988;2023-02-21T00:32:25;99061.38;;;6.48;100.00
57114;BME280;42994;51.606;9.988;2023-02-21T00:35:10;99060.53;;;6.47;100.00
57114;BME280;42994;51.606;9.988;2023-02-21T00:37:54;99074.53;;;6.49;100.00
57114;BME280;42994;51.606;9.988;2023-02-21T00:40:38;99062.88;;;6.50;100.00
57114;BME280;42994;51.606;9.988;2023-02-21T00:43:27;99065.91;;;6.56;100.00
57114;BME280;42994;51.606;9.988;2023-02-21T00:46:13;99076.72;;;6.54;100.00
57114;BME280;42994;51.606;9.988;2023-02-21T00:48:57;99065.03;;;6.55;100.00
57114;BME280;42994;51.606;9.988;2023-02-21T00:51:41;99063.56;;;6.52;100.00
57114;BME280;42994;51.606;9.988;2023-02-21T00:54:25;99069.69;;;6.53;100.00
57114;BME280;42994;51.606;9.988;2023-02-21T00:57:09;99045.75;;;6.61;100.00
57114;BME280;42994;51.606;9.988;2023-02-21T00:59:53;99053.59;;;6.63;100.00
57114;BME280;42994;51.606;9.988;2023-02-21T01:02:40;99056.41;;;6.61;100.00
57114;BME280;42994;51.606;9.988;2023-02-21T01:05:24;99048.94;;;6.65;100.00
57114;BME280;42994;51.606;9.988;2023-02-21T01:08:08;99053.59;;;6.63;100.00
57114;BME280;42994;51.606;9.988;2023-02-21T01:10:52;99048.59;;;6.60;100.00
57114;BME280;42994;51.606;9.988;2023-02-21T01:13:36;99046.59;;;6.62;100.00
57114;BME280;42994;51.606;9.988;2023-02-21T01:16:20;99044.75;;;6.62;100.00
57114;BME280;42994;51.606;9.988;2023-02-21T01:19:06;99037.94;;;6.60;100.00
57114;BME280;42994;51.606;9.988;2023-02-21T01:21:50;99035.28;;;6.60;100.00
57114;BME280;42994;51.606;9.988;2023-02-21T01:24:34;99043.09;;;6.61;100.00
57114;BME280;42994;51.606;9.988;2023-02-21T01:27:18;99058.91;;;6.63;100.00
57114;BME280;42994;51.606;9.988;2023-02-21T01:30:03;99042.75;;;6.64;100.00
57114;BME280;42994;51.606;9.988;2023-02-21T01:32:47;99033.09;;;6.63;100.00
57114;BME280;42994;51.606;9.988;2023-02-21T01:35:32;99024.44;;;6.61;100.00
57114;BME280;42994;51.606;9.988;2023-02-21T01:38:16;99026.75;;;6.64;100.00
57114;BME280;42994;51.606;9.988;2023-02-21T01:41:01;99016.47;;;6.61;100.00
57114;BME280;42994;51.606;9.988;2023-02-21T01:43:57;99007.63;;;6.61;100.00
57114;BME280;42994;51.606;9.988;2023-02-21T01:46:41;99012.13;;;6.60;100.00
57114;BME280;42994;51.606;9.988;2023-02-21T01:49:25;99023.44;;;6.62;100.00
57114;BME280;42994;51.606;9.988;2023-02-21T01:52:11;99033.25;;;6.62;100.00
57114;BME280;42994;51.606;9.988;2023-02-21T01:54:55;99038.44;;;6.63;100.00
57114;BME280;42994;51.606;9.988;2023-02-21T01:57:40;99038.75;;;6.60;100.00
57114;BME280;42994;51.606;9.988;2023-02-21T02:00:25;99043.09;;;6.61;100.00
57114;BME280;42994;51.606;9.988;2023-02-21T02:03:12;99053.09;;;6.59;100.00
57114;BME280;42994;51.606;9.988;2023-02-21T02:06:00;99053.56;;;6.54;100.00
57114;BME280;42994;51.606;9.988;2023-02-21T02:08:46;99049.41;;;6.52;100.00
57114;BME280;42994;51.606;9.988;2023-02-21T02:11:49;99057.41;;;6.52;100.00
57114;BME280;42994;51.606;9.988;2023-02-21T02:14:50;99055.25;;;6.56;100.00
57114;BME280;42994;51.606;9.988;2023-02-21T02:17:28;99063.91;;;6.58;100.00
57114;BME280;42994;51.606;9.988;2023-02-21T02:20:37;99063.56;;;6.61;100.00
57114;BME280;42994;51.606;9.988;2023-02-21T02:29:38;99050.72;;;6.64;100.00
57114;BME280;42994;51.606;9.988;2023-02-21T02:32:43;99045.09;;;6.67;100.00
57114;BME280;42994;51.606;9.988;2023-02-21T02:35:21;99052.09;;;6.68;100.00
57114;BME280;42994;51.606;9.988;2023-02-21T02:37:56;99049.06;;;6.71;100.00
57114;BME280;42994;51.606;9.988;2023-02-21T02:40:29;99061.41;;;6.72;100.00
57114;BME280;42994;51.606;9.988;2023-02-21T02:43:04;99047.78;;;6.76;100.00
57114;BME280;42994;51.606;9.988;2023-02-21T02:45:38;99052.75;;;6.79;100.00
57114;BME280;42994;51.606;9.988;2023-02-21T02:48:10;99060.56;;;6.80;100.00
57114;BME280;42994;51.606;9.988;2023-02-21T02:50:44;99057.75;;;6.82;100.00
57114;BME280;42994;51.606;9.988;2023-02-21T02:53:16;99058.94;;;6.79;100.00
57114;BME280;42994;51.606;9.988;2023-02-21T02:55:47;99057.09;;;6.80;100.00
57114;BME280;42994;51.606;9.988;2023-02-21T02:58:16;99059.59;;;6.81;100.00
57114;BME280;42994;51.606;9.988;2023-02-21T03:00:50;99073.72;;;6.82;100.00
57114;BME280;42994;51.606;9.988;2023-02-21T03:03:39;99066.56;;;6.82;100.00
57114;BME280;42994;51.606;9.988;2023-02-21T03:06:21;99066.41;;;6.84;100.00
57114;BME280;42994;51.606;9.988;2023-02-21T03:08:56;99053.25;;;6.82;100.00
57114;BME280;42994;51.606;9.988;2023-02-21T03:11:28;99067.41;;;6.83;100.00
57114;BME280;42994;51.606;9.988;2023-02-21T03:13:59;99073.91;;;6.80;100.00
57114;BME280;42994;51.606;9.988;2023-02-21T03:16:34;99071.38;;;6.79;100.00
57114;BME280;42994;51.606;9.988;2023-02-21T03:19:07;99063.56;;;6.77;100.00
57114;BME280;42994;51.606;9.988;2023-02-21T03:21:39;99070.88;;;6.75;100.00
57114;BME280;42994;51.606;9.988;2023-02-21T03:24:09;99072.72;;;6.74;100.00
57114;BME280;42994;51.606;9.988;2023-02-21T03:26:39;99074.56;;;6.74;100.00
57114;BME280;42994;51.606;9.988;2023-02-21T03:29:25;99083.06;;;6.78;100.00
57114;BME280;42994;51.606;9.988;2023-02-21T03:31:55;99070.41;;;6.80;100.00
57114;BME280;42994;51.606;9.988;2023-02-21T03:34:24;99077.38;;;6.81;100.00
57114;BME280;42994;51.606;9.988;2023-02-21T03:36:54;99079.06;;;6.82;100.00
57114;BME280;42994;51.606;9.988;2023-02-21T03:39:21;99071.22;;;6.80;100.00
57114;BME280;42994;51.606;9.988;2023-02-21T03:41:48;99072.25;;;6.79;100.00
57114;BME280;42994;51.606;9.988;2023-02-21T03:44:15;99073.22;;;6.78;100.00
57114;BME280;42994;51.606;9.988;2023-02-21T03:46:43;99067.91;;;6.78;100.00
57114;BME280;42994;51.606;9.988;2023-02-21T03:49:09;99060.06;;;6.77;100.00
57114;BME280;42994;51.606;9.988;2023-02-21T03:51:36;99067.25;;;6.76;100.00
57114;BME280;42994;51.606;9.988;2023-02-21T03:54:04;99053.91;;;6.76;100.00
57114;BME280;42994;51.606;9.988;2023-02-21T03:56:40;99060.06;;;6.77;100.00
57114;BME280;42994;51.606;9.988;2023-02-21T03:59:17;99050.25;;;6.77;100.00
57114;BME280;42994;51.606;9.988;2023-02-21T04:01:45;99060.06;;;6.77;100.00
57114;BME280;42994;51.606;9.988;2023-02-21T04:04:13;99053.75;;;6.78;100.00
57114;BME280;42994;51.606;9.988;2023-02-21T04:06:40;99054.59;;;6.78;100.00
57114;BME280;42994;51.606;9.988;2023-02-21T04:09:09;99052.09;;;6.77;100.00
57114;BME280;42994;51.606;9.988;2023-02-21T04:11:35;99039.13;;;6.73;100.00
57114;BME280;42994;51.606;9.988;2023-02-21T04:14:02;99046.09;;;6.74;100.00
57114;BME280;42994;51.606;9.988;2023-02-21T04:16:29;99039.94;;;6.74;100.00
57114;BME280;42994;51.606;9.988;2023-02-21T04:18:55;99049.78;;;6.73;100.00
57114;BME280;42994;51.606;9.988;2023-02-21T04:21:23;99046.41;;;6.71;100.00
57114;BME280;42994;51.606;9.988;2023-02-21T04:23:53;99042.59;;;6.74;100.00
57114;BME280;42994;51.606;9.988;2023-02-21T04:26:24;99042.75;;;6.72;100.00
57114;BME280;42994;51.606;9.988;2023-02-21T04:28:53;99036.78;;;6.70;100.00
57114;BME280;42994;51.606;9.988;2023-02-21T04:31:21;99034.09;;;6.70;100.00
57114;BME280;42994;51.606;9.988;2023-02-21T04:33:49;99038.41;;;6.71;100.00
57114;BME280;42994;51.606;9.988;2023-02-21T04:36:22;99033.78;;;6.73;100.00
57114;BME280;42994;51.606;9.988;2023-02-21T04:38:49;99027.28;;;6.76;100.00
57114;BME280;42994;51.606;9.988;2023-02-21T04:41:17;99020.28;;;6.75;100.00
57114;BME280;42994;51.606;9.988;2023-02-21T04:43:45;99013.78;;;6.78;100.00
57114;BME280;42994;51.606;9.988;2023-02-21T04:46:14;99017.44;;;6.77;100.00
57114;BME280;42994;51.606;9.988;2023-02-21T04:48:41;99012.78;;;6.79;100.00
57114;BME280;42994;51.606;9.988;2023-02-21T04:51:08;99022.78;;;6.77;100.00
57114;BME280;42994;51.606;9.988;2023-02-21T04:53:34;99016.31;;;6.79;100.00
57114;BME280;42994;51.606;9.988;2023-02-21T04:56:01;99009.28;;;6.78;100.00
57114;BME280;42994;51.606;9.988;2023-02-21T04:58:28;99007.28;;;6.80;100.00
57114;BME280;42994;51.606;9.988;2023-02-21T05:00:56;99001.97;;;6.80;100.00
57114;BME280;42994;51.606;9.988;2023-02-21T05:03:22;99000.97;;;6.81;100.00
57114;BME280;42994;51.606;9.988;2023-02-21T05:05:49;99007.13;;;6.82;100.00
57114;BME280;42994;51.606;9.988;2023-02-21T05:08:16;99005.13;;;6.84;100.00
57114;BME280;42994;51.606;9.988;2023-02-21T05:10:43;99000.63;;;6.84;100.00
57114;BME280;42994;51.606;9.988;2023-02-21T05:13:11;99010.28;;;6.85;100.00
57114;BME280;42994;51.606;9.988;2023-02-21T05:15:37;99001.47;;;6.85;100.00
57114;BME280;42994;51.606;9.988;2023-02-21T05:18:05;99012.78;;;6.87;100.00
57114;BME280;42994;51.606;9.988;2023-02-21T05:20:32;99004.78;;;6.87;100.00
57114;BME280;42994;51.606;9.988;2023-02-21T05:22:59;99002.47;;;6.84;100.00
57114;BME280;42994;51.606;9.988;2023-02-21T05:25:26;99004.63;;;6.80;100.00
57114;BME280;42994;51.606;9.988;2023-02-21T05:27:52;99009.47;;;6.85;100.00
57114;BME280;42994;51.606;9.988;2023-02-21T05:30:20;99000.81;;;6.83;100.00
57114;BME280;42994;51.606;9.988;2023-02-21T05:32:48;98997.78;;;6.86;100.00
57114;BME280;42994;51.606;9.988;2023-02-21T05:35:17;99002.78;;;6.89;100.00
57114;BME280;42994;51.606;9.988;2023-02-21T05:37:44;98987.78;;;6.88;100.00
57114;BME280;42994;51.606;9.988;2023-02-21T05:40:11;98988.13;;;6.93;100.00
57114;BME280;42994;51.606;9.988;2023-02-21T05:42:38;99001.44;;;6.93;100.00
57114;BME280;42994;51.606;9.988;2023-02-21T05:45:06;98997.81;;;6.94;100.00
57114;BME280;42994;51.606;9.988;2023-02-21T05:47:33;98997.97;;;6.92;100.00
57114;BME280;42994;51.606;9.988;2023-02-21T05:50:00;98997.97;;;6.92;100.00
57114;BME280;42994;51.606;9.988;2023-02-21T05:52:28;99005.13;;;6.92;100.00
57114;BME280;42994;51.606;9.988;2023-02-21T05:54:55;99002.47;;;6.92;100.00
57114;BME280;42994;51.606;9.988;2023-02-21T05:57:21;99014.94;;;6.91;100.00
57114;BME280;42994;51.606;9.988;2023-02-21T05:59:48;99030.09;;;6.91;100.00
57114;BME280;42994;51.606;9.988;2023-02-21T06:02:15;99009.97;;;6.88;100.00
57114;BME280;42994;51.606;9.988;2023-02-21T06:04:44;99013.63;;;6.87;100.00
57114;BME280;42994;51.606;9.988;2023-02-21T06:07:10;99011.63;;;6.89;100.00
57114;BME280;42994;51.606;9.988;2023-02-21T06:09:38;99009.81;;;6.90;100.00
57114;BME280;42994;51.606;9.988;2023-02-21T06:12:05;99021.44;;;6.89;100.00
57114;BME280;42994;51.606;9.988;2023-02-21T06:14:32;99037.59;;;6.87;100.00
57114;BME280;42994;51.606;9.988;2023-02-21T06:16:59;99027.75;;;6.88;100.00
57114;BME280;42994;51.606;9.988;2023-02-21T06:19:26;99030.78;;;6.85;100.00
57114;BME280;42994;51.606;9.988;2023-02-21T06:21:55;99022.13;;;6.83;100.00
57114;BME280;42994;51.606;9.988;2023-02-21T06:24:22;99025.78;;;6.82;100.00
57114;BME280;42994;51.606;9.988;2023-02-21T06:26:50;99021.28;;;6.82;100.00
57114;BME280;42994;51.606;9.988;2023-02-21T06:29:17;99028.59;;;6.80;100.00
57114;BME280;42994;51.606;9.988;2023-02-21T06:31:43;99034.94;;;6.79;100.00
57114;BME280;42994;51.606;9.988;2023-02-21T06:34:10;99023.28;;;6.80;100.00
57114;BME280;42994;51.606;9.988;2023-02-21T06:36:36;99027.78;;;6.80;100.00
57114;BME280;42994;51.606;9.988;2023-02-21T06:39:04;99026.59;;;6.82;100.00
57114;BME280;42994;51.606;9.988;2023-02-21T06:41:32;99030.44;;;6.80;100.00
57114;BME280;42994;51.606;9.988;2023-02-21T06:44:00;99032.44;;;6.78;100.00
57114;BME280;42994;51.606;9.988;2023-02-21T06:46:28;99031.44;;;6.79;100.00
57114;BME280;42994;51.606;9.988;2023-02-21T06:48:55;99034.09;;;6.79;100.00
57114;BME280;42994;51.606;9.988;2023-02-21T06:51:22;99040.94;;;6.81;100.00
57114;BME280;42994;51.606;9.988;2023-02-21T06:53:54;99036.44;;;6.82;100.00
57114;BME280;42994;51.606;9.988;2023-02-21T06:56:21;99043.44;;;6.83;100.00
57114;BME280;42994;51.606;9.988;2023-02-21T06:58:48;99044.09;;;6.85;100.00
57114;BME280;42994;51.606;9.988;2023-02-21T07:01:16;99046.59;;;6.86;100.00
57114;BME280;42994;51.606;9.988;2023-02-21T07:03:43;99045.75;;;6.86;100.00
57114;BME280;42994;51.606;9.988;2023-02-21T07:06:10;99055.41;;;6.87;100.00
57114;BME280;42994;51.606;9.988;2023-02-21T07:08:37;99047.28;;;6.88;100.00
57114;BME280;42994;51.606;9.988;2023-02-21T07:11:04;99050.94;;;6.96;100.00
57114;BME280;42994;51.606;9.988;2023-02-21T07:13:31;99053.59;;;6.96;100.00
57114;BME280;42994;51.606;9.988;2023-02-21T07:15:58;99057.91;;;6.97;100.00
57114;BME280;42994;51.606;9.988;2023-02-21T07:18:26;99061.41;;;6.97;100.00
57114;BME280;42994;51.606;9.988;2023-02-21T07:20:53;99065.41;;;7.01;100.00
57114;BME280;42994;51.606;9.988;2023-02-21T07:23:20;99064.75;;;6.99;100.00
57114;BME280;42994;51.606;9.988;2023-02-21T07:25:46;99067.59;;;6.98;100.00
57114;BME280;42994;51.606;9.988;2023-02-21T07:28:13;99072.06;;;6.97;100.00
57114;BME280;42994;51.606;9.988;2023-02-21T07:30:40;99069.41;;;6.97;100.00
57114;BME280;42994;51.606;9.988;2023-02-21T07:33:06;99075.41;;;6.99;100.00
57114;BME280;42994;51.606;9.988;2023-02-21T07:35:34;99082.41;;;7.00;100.00
57114;BME280;42994;51.606;9.988;2023-02-21T07:38:01;99083.41;;;6.99;100.00
57114;BME280;42994;51.606;9.988;2023-02-21T07:40:27;99084.25;;;7.00;100.00
57114;BME280;42994;51.606;9.988;2023-02-21T07:42:54;99084.91;;;7.02;100.00
57114;BME280;42994;51.606;9.988;2023-02-21T07:45:21;99079.41;;;7.03;100.00
57114;BME280;42994;51.606;9.988;2023-02-21T07:47:47;99075.06;;;7.02;100.00
57114;BME280;42994;51.606;9.988;2023-02-21T07:50:15;99096.06;;;7.05;100.00
57114;BME280;42994;51.606;9.988;2023-02-21T07:52:44;99100.72;;;7.03;100.00
57114;BME280;42994;51.606;9.988;2023-02-21T07:55:11;99090.88;;;7.04;100.00
57114;BME280;42994;51.606;9.988;2023-02-21T07:57:38;99089.91;;;7.05;100.00
57114;BME280;42994;51.606;9.988;2023-02-21T08:00:05;99095.91;;;7.07;100.00
57114;BME280;42994;51.606;9.988;2023-02-21T08:02:38;99088.56;;;7.09;100.00
57114;BME280;42994;51.606;9.988;2023-02-21T08:05:05;99099.38;;;7.07;100.00
57114;BME280;42994;51.606;9.988;2023-02-21T08:07:31;99094.06;;;7.07;100.00
57114;BME280;42994;51.606;9.988;2023-02-21T08:09:59;99110.88;;;7.08;100.00
57114;BME280;42994;51.606;9.988;2023-02-21T08:12:26;99112.88;;;7.06;100.00
57114;BME280;42994;51.606;9.988;2023-02-21T08:14:53;99119.88;;;7.07;100.00
57114;BME280;42994;51.606;9.988;2023-02-21T08:17:19;99128.03;;;7.05;100.00
57114;BME280;42994;51.606;9.988;2023-02-21T08:19:46;99133.38;;;7.05;100.00
57114;BME280;42994;51.606;9.988;2023-02-21T08:22:13;99130.88;;;7.04;100.00
57114;BME280;42994;51.606;9.988;2023-02-21T08:24:39;99138.03;;;7.03;100.00
57114;BME280;42994;51.606;9.988;2023-02-21T08:27:07;99136.34;;;7.02;100.00
57114;BME280;42994;51.606;9.988;2023-02-21T08:29:34;99132.88;;;7.02;100.00
57114;BME280;42994;51.606;9.988;2023-02-21T08:32:01;99139.38;;;6.99;100.00
57114;BME280;42994;51.606;9.988;2023-02-21T08:34:28;99137.69;;;6.98;100.00
57114;BME280;42994;51.606;9.988;2023-02-21T08:36:54;99134.53;;;6.95;100.00
57114;BME280;42994;51.606;9.988;2023-02-21T08:39:22;99130.19;;;6.93;100.00
57114;BME280;42994;51.606;9.988;2023-02-21T08:41:49;99133.19;;;6.90;100.00
57114;BME280;42994;51.606;9.988;2023-02-21T08:44:18;99134.03;;;6.91;100.00
57114;BME280;42994;51.606;9.988;2023-02-21T08:46:47;99134.34;;;6.88;100.00
57114;BME280;42994;51.606;9.988;2023-02-21T08:49:14;99130.34;;;6.84;100.00
57114;BME280;42994;51.606;9.988;2023-02-21T08:51:41;99125.03;;;6.84;100.00
57114;BME280;42994;51.606;9.988;2023-02-21T08:54:08;99118.03;;;6.83;100.00
57114;BME280;42994;51.606;9.988;2023-02-21T08:56:34;99131.19;;;6.84;100.00
57114;BME280;42994;51.606;9.988;2023-02-21T08:59:01;99135.38;;;6.87;100.00
57114;BME280;42994;51.606;9.988;2023-02-21T09:01:34;99131.00;;;6.86;100.00
57114;BME280;42994;51.606;9.988;2023-02-21T09:04:01;99128.03;;;6.89;100.00
57114;BME280;42994;51.606;9.988;2023-02-21T09:06:29;99127.03;;;6.90;100.00
57114;BME280;42994;51.606;9.988;2023-02-21T09:08:56;99121.53;;;6.91;100.00
57114;BME280;42994;51.606;9.988;2023-02-21T09:11:22;99128.22;;;6.96;100.00
57114;BME280;42994;51.606;9.988;2023-02-21T09:13:49;99128.22;;;6.96;100.00
57114;BME280;42994;51.606;9.988;2023-02-21T09:16:17;99124.72;;;7.03;100.00
57114;BME280;42994;51.606;9.988;2023-02-21T09:18:52;99128.03;;;7.05;100.00
57114;BME280;42994;51.606;9.988;2023-02-21T09:21:19;99124.38;;;7.06;100.00
57114;BME280;42994;51.606;9.988;2023-02-21T09:23:46;99111.38;;;7.03;100.00
57114;BME280;42994;51.606;9.988;2023-02-21T09:26:12;99096.72;;;7.07;100.00
57114;BME280;42994;51.606;9.988;2023-02-21T09:28:40;99110.56;;;7.03;100.00
57114;BME280;42994;51.606;9.988;2023-02-21T09:31:08;99098.38;;;7.00;100.00
57114;BME280;42994;51.606;9.988;2023-02-21T09:33:35;99103.06;;;7.06;100.00
57114;BME280;42994;51.606;9.988;2023-02-21T09:36:07;99110.22;;;7.06;100.00
57114;BME280;42994;51.606;9.988;2023-02-21T09:38:34;99105.53;;;7.08;100.00
57114;BME280;42994;51.606;9.988;2023-02-21T09:41:04;99109.38;;;7.13;100.00
57114;BME280;42994;51.606;9.988;2023-02-21T09:43:34;99110.22;;;7.14;100.00
57114;BME280;42994;51.606;9.988;2023-02-21T09:46:04;99092.56;;;7.21;100.00
57114;BME280;42994;51.606;9.988;2023-02-21T09:48:32;99107.88;;;7.27;100.00
57114;BME280;42994;51.606;9.988;2023-02-21T09:51:01;99113.53;;;7.32;100.00
57114;BME280;42994;51.606;9.988;2023-02-21T09:53:33;99099.19;;;7.42;100.00
57114;BME280;42994;51.606;9.988;2023-02-21T09:56:04;99104.66;;;7.57;100.00
57114;BME280;42994;51.606;9.988;2023-02-21T09:58:31;99107.66;;;7.62;100.00
57114;BME280;42994;51.606;9.988;2023-02-21T10:01:05;99117.81;;;7.66;100.00
57114;BME280;42994;51.606;9.988;2023-02-21T10:03:53;99121.81;;;7.70;100.00
57114;BME280;42994;51.606;9.988;2023-02-21T10:06:34;99131.16;;;7.66;100.00
57114;BME280;42994;51.606;9.988;2023-02-21T10:09:16;99127.31;;;7.61;100.00
57114;BME280;42994;51.606;9.988;2023-02-21T10:11:58;99131.63;;;7.70;100.00
57114;BME280;42994;51.606;9.988;2023-02-21T10:14:37;99128.81;;;7.72;100.00
57114;BME280;42994;51.606;9.988;2023-02-21T10:17:14;99133.00;;;7.74;100.00
57114;BME280;42994;51.606;9.988;2023-02-21T10:19:44;99135.31;;;7.69;100.00
57114;BME280;42994;51.606;9.988;2023-02-21T10:22:19;99140.63;;;7.77;100.00
57114;BME280;42994;51.606;9.988;2023-02-21T10:24:48;99143.13;;;7.87;100.00
57114;BME280;42994;51.606;9.988;2023-02-21T10:27:17;99143.78;;;7.89;100.00
57114;BME280;42994;51.606;9.988;2023-02-21T10:29:48;99144.44;;;7.91;100.00
57114;BME280;42994;51.606;9.988;2023-02-21T10:32:16;99148.59;;;7.94;100.00
57114;BME280;42994;51.606;9.988;2023-02-21T10:34:44;99151.59;;;7.99;100.00
57114;BME280;42994;51.606;9.988;2023-02-21T10:40:24;99157.09;;;7.97;100.00
57114;BME280;42994;51.606;9.988;2023-02-21T10:42:55;99160.91;;;8.03;100.00
57114;BME280;42994;51.606;9.988;2023-02-21T10:45:32;99156.59;;;8.02;100.00
57114;BME280;42994;51.606;9.988;2023-02-21T10:48:02;99163.91;;;8.08;100.00
57114;BME280;42994;51.606;9.988;2023-02-21T10:50:38;99171.91;;;8.08;100.00
57114;BME280;42994;51.606;9.988;2023-02-21T10:53:06;99169.06;;;8.09;100.00
57114;BME280;42994;51.606;9.988;2023-02-21T10:55:34;99173.06;;;8.14;100.00
57114;BME280;42994;51.606;9.988;2023-02-21T10:58:07;99173.22;;;8.12;100.00
57114;BME280;42994;51.606;9.988;2023-02-21T11:00:36;99177.25;;;8.16;100.00
57114;BME280;42994;51.606;9.988;2023-02-21T11:03:05;99169.88;;;8.18;100.00
57114;BME280;42994;51.606;9.988;2023-02-21T11:05:34;99177.56;;;8.21;100.00
57114;BME280;42994;51.606;9.988;2023-02-21T11:08:06;99178.88;;;8.25;100.00
57114;BME280;42994;51.606;9.988;2023-02-21T11:10:36;99175.00;;;8.28;100.00
57114;BME280;42994;51.606;9.988;2023-02-21T11:13:12;99176.53;;;8.31;100.00
57114;BME280;42994;51.606;9.988;2023-02-21T11:15:40;99180.03;;;8.31;100.00
57114;BME280;42994;51.606;9.988;2023-02-21T11:18:15;99172.03;;;8.23;100.00
57114;BME280;42994;51.606;9.988;2023-02-21T11:20:43;99168.84;;;8.27;100.00
57114;BME280;42994;51.606;9.988;2023-02-21T11:23:18;99179.00;;;8.32;100.00
57114;BME280;42994;51.606;9.988;2023-02-21T11:25:47;99177.19;;;8.33;100.00
57114;BME280;42994;51.606;9.988;2023-02-21T11:28:18;99185.50;;;8.38;100.00
57114;BME280;42994;51.606;9.988;2023-02-21T11:30:49;99175.47;;;8.40;100.00
57114;BME280;42994;51.606;9.988;2023-02-21T11:33:19;99177.00;;;8.42;100.00
57114;BME280;42994;51.606;9.988;2023-02-21T11:35:47;99176.47;;;8.39;100.00
57114;BME280;42994;51.606;9.988;2023-02-21T11:38:30;99178.13;;;8.48;100.00
57114;BME280;42994;51.606;9.988;2023-02-21T11:40:59;99175.78;;;8.53;100.00
57114;BME280;42994;51.606;9.988;2023-02-21T11:43:27;99184.66;;;8.45;100.00
57114;BME280;42994;51.606;9.988;2023-02-21T11:46:02;99176.50;;;8.47;100.00
57114;BME280;42994;51.606;9.988;2023-02-21T11:48:33;99172.13;;;8.46;100.00
57114;BME280;42994;51.606;9.988;2023-02-21T11:51:07;99160.75;;;8.52;100.00
57114;BME280;42994;51.606;9.988;2023-02-21T11:53:41;99157.59;;;8.49;100.00
57114;BME280;42994;51.606;9.988;2023-02-21T11:56:23;99159.25;;;8.50;100.00
57114;BME280;42994;51.606;9.988;2023-02-21T11:58:57;99149.41;;;8.50;100.00
57114;BME280;42994;51.606;9.988;2023-02-21T12:01:28;99150.03;;;8.60;100.00
57114;BME280;42994;51.606;9.988;2023-02-21T12:04:11;99145.09;;;8.72;100.00
57114;BME280;42994;51.606;9.988;2023-02-21T12:06:44;99147.91;;;8.79;100.00
57114;BME280;42994;51.606;9.988;2023-02-21T12:09:18;99147.44;;;8.75;100.00
57114;BME280;42994;51.606;9.988;2023-02-21T12:11:55;99152.94;;;8.74;100.00
57114;BME280;42994;51.606;9.988;2023-02-21T12:14:39;99147.03;;;8.87;100.00
57114;BME280;42994;51.606;9.988;2023-02-21T12:17:22;99150.53;;;8.87;100.00
57114;BME280;42994;51.606;9.988;2023-02-21T12:20:21;99154.38;;;8.84;100.00
57114;BME280;42994;51.606;9.988;2023-02-21T12:22:58;99152.25;;;8.80;100.00
57114;BME280;42994;51.606;9.988;2023-02-21T12:25:32;99158.56;;;8.87;100.00
57114;BME280;42994;51.606;9.988;2023-02-21T12:28:14;99157.53;;;8.88;100.00
57114;BME280;42994;51.606;9.988;2023-02-21T12:30:54;99156.25;;;8.84;100.00
57114;BME280;42994;51.606;9.988;2023-02-21T12:33:33;99157.06;;;8.84;100.00
57114;BME280;42994;51.606;9.988;2023-02-21T12:36:31;99143.38;;;8.79;100.00
57114;BME280;42994;51.606;9.988;2023-02-21T12:39:11;99150.06;;;8.83;100.00
57114;BME280;42994;51.606;9.988;2023-02-21T12:41:57;99139.13;;;8.93;100.00
57114;BME280;42994;51.606;9.988;2023-02-21T12:44:33;99144.13;;;8.96;100.00
57114;BME280;42994;51.606;9.988;2023-02-21T12:47:10;99140.19;;;9.07;100.00
57114;BME280;42994;51.606;9.988;2023-02-21T12:49:43;99145.09;;;9.03;100.00
57114;BME280;42994;51.606;9.988;2023-02-21T12:52:14;99136.81;;;9.13;100.00
57114;BME280;42994;51.606;9.988;2023-02-21T12:54:43;99132.63;;;9.11;100.00
57114;BME280;42994;51.606;9.988;2023-02-21T12:57:13;99134.84;;;9.07;100.00
57114;BME280;42994;51.606;9.988;2023-02-21T12:59:54;99146.56;;;9.06;100.00
57114;BME280;42994;51.606;9.988;2023-02-21T13:02:36;99129.97;;;9.11;100.00
57114;BME280;42994;51.606;9.988;2023-02-21T13:05:10;99135.53;;;9.09;100.00
57114;BME280;42994;51.606;9.988;2023-02-21T13:07:42;99136.00;;;9.13;100.00
57114;BME280;42994;51.606;9.988;2023-02-21T13:10:15;99133.50;;;9.11;100.00
57114;BME280;42994;51.606;9.988;2023-02-21T13:12:46;99138.19;;;9.09;100.00
57114;BME280;42994;51.606;9.988;2023-02-21T13:15:19;99140.72;;;9.02;100.00
57114;BME280;42994;51.606;9.988;2023-02-21T13:17:54;99135.91;;;8.98;100.00
57114;BME280;42994;51.606;9.988;2023-02-21T13:20:23;99136.69;;;9.07;100.00
57114;BME280;42994;51.606;9.988;2023-02-21T13:26:46;99130.69;;;9.04;100.00
57114;BME280;42994;51.606;9.988;2023-02-21T13:29:20;99139.06;;;9.01;100.00
57114;BME280;42994;51.606;9.988;2023-02-21T13:31:57;99127.03;;;9.06;100.00
57114;BME280;42994;51.606;9.988;2023-02-21T13:34:28;99137.59;;;8.99;100.00
57114;BME280;42994;51.606;9.988;2023-02-21T13:37:00;99136.03;;;9.04;100.00
57114;BME280;42994;51.606;9.988;2023-02-21T13:39:29;99130.88;;;9.03;100.00
57114;BME280;42994;51.606;9.988;2023-02-21T13:42:04;99127.53;;;9.01;100.00
57114;BME280;42994;51.606;9.988;2023-02-21T13:44:33;99122.84;;;9.03;100.00